createdAt,value
2023-02-19T00:02:25.294Z,4.30
2023-02-19T00:04:54.523Z,3.65
2023-02-19T00:07:25.621Z,4.13
2023-02-19T00:09:52.293Z,3.45
2023-02-19T00:12:18.965Z,3.70
2023-02-19T00:14:45.670Z,3.92
2023-02-19T00:17:12.354Z,4.15
2023-02-19T00:19:39.016Z,4.40
2023-02-19T00:22:07.877Z,3.63
2023-02-19T00:24:34.606Z,3.90
2023-02-19T00:27:03.532Z,3.50
2023-02-19T00:29:30.365Z,3.13
2023-02-19T00:32:02.120Z,2.80
2023-02-19T00:34:31.368Z,2.80
2023-02-19T00:37:00.402Z,2.42
2023-02-19T00:39:27.119Z,2.60
2023-02-19T00:41:53.818Z,2.50
2023-02-19T00:44:20.630Z,2.10
2023-02-19T00:46:50.374Z,2.58
2023-02-19T00:49:21.391Z,2.50
2023-02-19T00:51:52.026Z,2.30
2023-02-19T00:54:19.604Z,2.15
2023-02-19T00:56:46.319Z,2.33
2023-02-19T00:59:13.027Z,1.90
2023-02-19T01:01:40.077Z,2.20
2023-02-19T01:04:09.458Z,2.08
2023-02-19T01:06:37.179Z,2.20
2023-02-19T01:09:05.222Z,2.03
2023-02-19T01:11:31.934Z,1.65
2023-02-19T01:14:00.299Z,1.85
2023-02-19T01:16:30.931Z,1.95
2023-02-19T01:18:58.156Z,1.50
2023-02-19T01:21:29.280Z,1.60
2023-02-19T01:23:57.604Z,1.65
2023-02-19T01:26:28.157Z,1.45
2023-02-19T01:28:57.095Z,1.40
2023-02-19T01:31:25.025Z,1.40
2023-02-19T01:33:56.824Z,1.38
2023-02-19T01:36:23.803Z,1.30
2023-02-19T01:38:50.661Z,1.40
2023-02-19T01:41:21.054Z,1.55
2023-02-19T01:44:15.879Z,1.40
2023-02-19T01:46:43.874Z,1.30
2023-02-19T01:49:48.765Z,1.35
2023-02-19T01:52:32.807Z,1.20
2023-02-19T01:55:01.386Z,1.35
2023-02-19T01:57:33.602Z,1.10
2023-02-19T02:00:06.338Z,1.00
2023-02-19T02:02:33.009Z,1.15
2023-02-19T02:05:03.158Z,0.90
2023-02-19T02:07:48.274Z,1.10
2023-02-19T02:10:21.154Z,1.10
2023-02-19T02:12:57.094Z,1.03
2023-02-19T02:15:35.185Z,0.77
2023-02-19T02:18:49.659Z,0.65
2023-02-19T02:21:43.913Z,0.80
2023-02-19T02:24:24.886Z,1.08
2023-02-19T02:27:28.201Z,0.80
2023-02-19T02:30:12.731Z,0.77
2023-02-19T02:32:53.620Z,1.00
2023-02-19T02:35:24.163Z,0.90
2023-02-19T02:37:55.221Z,1.20
2023-02-19T02:40:24.714Z,1.13
2023-02-19T02:42:51.514Z,1.30
2023-02-19T02:45:36.470Z,1.30
2023-02-19T02:48:12.912Z,1.23
2023-02-19T02:51:00.533Z,1.20
2023-02-19T02:54:16.022Z,1.20
2023-02-19T02:56:45.173Z,1.40
2023-02-19T02:59:16.517Z,1.45
2023-02-19T03:02:18.930Z,1.35
2023-02-19T03:05:32.270Z,1.52
2023-02-19T03:08:07.415Z,1.60
2023-02-19T03:10:58.176Z,1.45
2023-02-19T03:13:52.772Z,1.40
2023-02-19T03:16:50.571Z,1.52
2023-02-19T03:19:20.161Z,1.70
2023-02-19T03:21:57.084Z,1.73
2023-02-19T03:24:50.364Z,2.22
2023-02-19T03:27:20.355Z,1.80
2023-02-19T03:29:51.484Z,2.20
2023-02-19T03:32:31.273Z,2.17
2023-02-19T03:35:17.062Z,3.08
2023-02-19T03:38:01.903Z,2.63
2023-02-19T03:40:31.370Z,2.33
2023-02-19T03:43:38.733Z,2.60
2023-02-19T03:46:23.157Z,2.55
2023-02-19T03:49:01.297Z,2.58
2023-02-19T03:51:39.176Z,2.72
2023-02-19T03:54:14.988Z,2.60
2023-02-19T03:57:08.437Z,2.80
2023-02-19T03:59:47.109Z,2.92
2023-02-19T04:02:29.712Z,2.85
2023-02-19T04:05:07.926Z,3.08
2023-02-19T04:07:40.065Z,3.58
2023-02-19T04:10:09.163Z,2.78
2023-02-19T04:12:41.630Z,2.53
2023-02-19T04:15:14.449Z,2.75
2023-02-19T04:17:48.991Z,3.00
2023-02-19T04:20:16.563Z,2.97
2023-02-19T04:22:43.934Z,3.40
2023-02-19T04:25:12.870Z,2.97
2023-02-19T04:27:42.222Z,2.60
2023-02-19T04:30:11.476Z,3.25
2023-02-19T04:32:38.263Z,3.05
2023-02-19T04:35:07.672Z,2.90
2023-02-19T04:37:34.331Z,3.17
2023-02-19T04:40:01.066Z,2.65
2023-02-19T04:42:27.719Z,3.22
2023-02-19T04:44:54.361Z,3.17
2023-02-19T04:47:23.492Z,2.97
2023-02-19T04:49:50.194Z,2.80
2023-02-19T04:52:17.070Z,3.13
2023-02-19T04:54:43.706Z,2.97
2023-02-19T04:57:10.553Z,2.92
2023-02-19T04:59:39.710Z,3.03
2023-02-19T05:02:11.292Z,2.47
2023-02-19T05:04:40.780Z,2.75
2023-02-19T05:07:09.964Z,2.50
2023-02-19T05:09:36.624Z,2.80
2023-02-19T05:12:03.468Z,2.67
2023-02-19T05:14:30.106Z,2.80
2023-02-19T05:16:56.855Z,2.53
2023-02-19T05:19:23.578Z,2.63
2023-02-19T05:21:50.304Z,2.60
2023-02-19T05:24:17.048Z,2.70
2023-02-19T05:26:45.419Z,2.40
2023-02-19T05:29:12.229Z,2.28
2023-02-19T05:31:38.926Z,2.80
2023-02-19T05:34:08.305Z,2.58
2023-02-19T05:36:34.983Z,2.55
2023-02-19T05:39:06.140Z,2.20
2023-02-19T05:41:35.356Z,2.50
2023-02-19T05:44:04.406Z,2.50
2023-02-19T05:46:31.892Z,2.88
2023-02-19T05:48:59.305Z,2.22
2023-02-19T05:51:27.409Z,2.50
2023-02-19T05:53:57.258Z,2.78
2023-02-19T05:56:34.397Z,2.30
2023-02-19T05:59:29.316Z,2.50
2023-02-19T06:01:56.134Z,2.80
2023-02-19T06:04:23.334Z,2.85
2023-02-19T06:06:50.131Z,2.70
2023-02-19T06:09:19.067Z,2.70
2023-02-19T06:11:45.811Z,3.25
2023-02-19T06:14:15.069Z,3.00
2023-02-19T06:16:44.248Z,2.92
2023-02-19T06:19:13.183Z,3.00
2023-02-19T06:21:44.652Z,3.30
2023-02-19T06:24:13.786Z,3.85
2023-02-19T06:26:40.462Z,3.30
2023-02-19T06:29:09.614Z,3.38
2023-02-19T06:31:36.345Z,3.90
2023-02-19T06:34:06.424Z,3.63
2023-02-19T06:36:35.629Z,3.28
2023-02-19T06:39:04.114Z,3.80
2023-02-19T06:41:31.019Z,3.55
2023-02-19T06:43:58.310Z,3.45
2023-02-19T06:46:25.265Z,4.07
2023-02-19T06:48:52.024Z,3.15
2023-02-19T06:51:22.617Z,3.45
2023-02-19T06:53:49.938Z,3.05
2023-02-19T06:56:33.765Z,3.25
2023-02-19T06:59:05.003Z,3.10
2023-02-19T07:01:33.971Z,3.50
2023-02-19T07:04:01.433Z,3.72
2023-02-19T07:06:29.419Z,3.08
2023-02-19T07:08:57.687Z,3.60
2023-02-19T07:11:25.251Z,3.50
2023-02-19T07:14:00.113Z,3.40
2023-02-19T07:16:27.320Z,3.60
2023-02-19T07:18:56.960Z,3.22
2023-02-19T07:21:26.710Z,3.20
2023-02-19T07:23:53.757Z,3.75
2023-02-19T07:26:21.574Z,3.65
2023-02-19T07:28:49.958Z,3.33
2023-02-19T07:31:19.648Z,3.00
2023-02-19T07:33:47.538Z,3.05
2023-02-19T07:36:15.342Z,3.58
2023-02-19T07:38:42.085Z,2.80
2023-02-19T07:41:09.153Z,3.22
2023-02-19T07:43:40.002Z,3.03
2023-02-19T07:46:14.165Z,2.80
2023-02-19T07:48:42.488Z,3.33
2023-02-19T07:51:13.195Z,2.90
2023-02-19T07:53:40.030Z,3.00
2023-02-19T07:56:10.985Z,2.78
2023-02-19T07:58:37.660Z,3.65
2023-02-19T08:01:13.976Z,2.58
2023-02-19T08:03:44.090Z,3.00
2023-02-19T08:06:11.796Z,2.67
2023-02-19T08:08:39.318Z,2.45
2023-02-19T08:11:25.106Z,2.72
2023-02-19T08:13:53.617Z,2.50
2023-02-19T08:16:33.045Z,2.53
2023-02-19T08:19:07.759Z,2.72
2023-02-19T08:21:36.578Z,2.60
2023-02-19T08:24:03.416Z,2.90
2023-02-19T08:26:32.388Z,3.00
2023-02-19T08:28:59.141Z,2.60
2023-02-19T08:31:28.443Z,2.88
2023-02-19T08:33:57.699Z,2.97
2023-02-19T08:36:24.391Z,2.83
2023-02-19T08:38:51.088Z,2.63
2023-02-19T08:41:17.872Z,2.63
2023-02-19T08:43:44.698Z,2.80
2023-02-19T08:46:14.051Z,3.17
2023-02-19T08:48:43.270Z,2.42
2023-02-19T08:51:12.180Z,2.92
2023-02-19T08:53:40.581Z,2.63
2023-02-19T08:56:09.885Z,3.08
2023-02-19T08:58:42.090Z,2.40
2023-02-19T09:01:15.739Z,2.25
2023-02-19T09:03:43.250Z,2.75
2023-02-19T09:06:18.539Z,2.33
2023-02-19T09:08:45.311Z,2.85
2023-02-19T09:11:12.865Z,3.00
2023-02-19T09:13:42.077Z,2.97
2023-02-19T09:16:08.864Z,2.85
2023-02-19T09:18:38.161Z,3.25
2023-02-19T09:21:06.520Z,2.55
2023-02-19T09:23:34.516Z,3.15
2023-02-19T09:26:03.316Z,3.00
2023-02-19T09:28:32.494Z,3.00
2023-02-19T09:31:11.782Z,2.85
2023-02-19T09:33:41.867Z,2.97
2023-02-19T09:36:08.940Z,2.85
2023-02-19T09:38:39.450Z,3.28
2023-02-19T09:41:30.854Z,3.60
2023-02-19T09:44:05.801Z,2.90
2023-02-19T09:46:43.618Z,3.42
2023-02-19T09:49:18.289Z,2.95
2023-02-19T09:51:52.336Z,2.70
2023-02-19T09:54:27.923Z,3.22
2023-02-19T09:56:56.102Z,2.92
2023-02-19T09:59:41.026Z,3.20
2023-02-19T10:02:23.122Z,2.60
2023-02-19T10:04:51.264Z,3.00
2023-02-19T10:07:28.172Z,3.38
2023-02-19T10:10:01.047Z,3.55
2023-02-19T10:12:31.756Z,2.90
2023-02-19T10:15:09.196Z,2.90
2023-02-19T10:17:38.199Z,2.70
2023-02-19T10:20:05.520Z,2.90
2023-02-19T10:22:35.632Z,2.47
2023-02-19T10:25:02.808Z,3.40
2023-02-19T10:27:31.174Z,3.13
2023-02-19T10:30:01.272Z,3.72
2023-02-19T10:32:29.450Z,3.05
2023-02-19T10:35:16.309Z,2.85
2023-02-19T10:37:51.137Z,2.97
2023-02-19T10:40:23.282Z,2.88
2023-02-19T10:42:55.857Z,2.97
2023-02-19T10:45:35.134Z,2.92
2023-02-19T10:48:02.832Z,2.67
2023-02-19T10:50:39.252Z,3.78
2023-02-19T10:53:05.942Z,2.40
2023-02-19T10:55:38.104Z,3.30
2023-02-19T10:58:40.023Z,2.40
2023-02-19T11:01:28.101Z,3.75
2023-02-19T11:04:17.962Z,2.50
2023-02-19T11:06:46.548Z,2.28
2023-02-19T11:09:31.637Z,3.15
2023-02-19T11:11:59.408Z,2.67
2023-02-19T11:14:27.286Z,2.25
2023-02-19T11:16:56.720Z,2.47
2023-02-19T11:19:44.154Z,2.70
2023-02-19T11:22:34.408Z,1.90
2023-02-19T11:25:17.952Z,2.42
2023-02-19T11:28:02.641Z,2.10
2023-02-19T11:30:36.996Z,2.20
2023-02-19T11:33:27.437Z,2.65
2023-02-19T11:36:17.965Z,2.17
2023-02-19T11:38:44.934Z,2.15
2023-02-19T11:41:28.263Z,1.67
2023-02-19T11:44:13.604Z,1.90
2023-02-19T11:47:18.079Z,1.88
2023-02-19T11:49:58.707Z,1.52
2023-02-19T11:52:49.581Z,2.63
2023-02-19T11:56:04.854Z,1.25
2023-02-19T11:58:37.657Z,1.52
2023-02-19T12:01:31.522Z,2.00
2023-02-19T12:04:07.120Z,1.88
2023-02-19T12:06:50.732Z,1.77
2023-02-19T12:09:29.222Z,2.30
2023-02-19T12:12:33.331Z,2.08
2023-02-19T12:15:22.569Z,2.13
2023-02-19T12:17:49.159Z,2.20
2023-02-19T12:20:57.703Z,2.17
2023-02-19T12:23:38.417Z,2.40
2023-02-19T12:26:12.760Z,1.95
2023-02-19T12:29:01.572Z,2.10
2023-02-19T12:31:36.483Z,2.25
2023-02-19T12:34:29.263Z,1.80
2023-02-19T12:37:26.229Z,2.03
2023-02-19T12:40:14.347Z,2.20
2023-02-19T12:43:01.693Z,1.80
2023-02-19T12:45:40.323Z,1.80
2023-02-19T12:48:28.409Z,2.30
2023-02-19T12:51:06.952Z,2.10
2023-02-19T12:53:54.127Z,2.00
2023-02-19T12:56:34.612Z,2.05
2023-02-19T12:59:07.382Z,2.50
2023-02-19T13:01:45.480Z,2.15
2023-02-19T13:04:27.975Z,2.60
2023-02-19T13:07:33.448Z,2.47
2023-02-19T13:10:10.734Z,2.25
2023-02-19T13:12:40.518Z,1.90
2023-02-19T13:15:16.552Z,2.45
2023-02-19T13:17:52.993Z,2.50
2023-02-19T13:20:32.634Z,1.80
2023-02-19T13:23:42.506Z,2.00
2023-02-19T13:26:20.770Z,2.42
2023-02-19T13:29:09.332Z,2.35
2023-02-19T13:32:15.149Z,1.73
2023-02-19T13:35:10.586Z,2.35
2023-02-19T13:37:38.324Z,2.40
2023-02-19T13:40:19.267Z,2.00
2023-02-19T13:42:55.037Z,2.50
2023-02-19T13:45:42.115Z,2.20
2023-02-19T13:48:30.048Z,2.10
2023-02-19T13:51:18.771Z,1.92
2023-02-19T13:53:49.367Z,1.80
2023-02-19T13:56:31.513Z,1.75
2023-02-19T13:59:01.339Z,2.20
2023-02-19T14:01:53.001Z,1.92
2023-02-19T14:04:40.944Z,1.73
2023-02-19T14:07:12.735Z,1.98
2023-02-19T14:09:45.207Z,2.10
2023-02-19T14:12:19.106Z,2.10
2023-02-19T14:17:37.450Z,1.70
2023-02-19T14:20:12.978Z,2.03
2023-02-19T14:23:01.534Z,1.48
2023-02-19T14:25:31.075Z,2.08
2023-02-19T14:28:06.537Z,2.28
2023-02-19T14:30:35.141Z,1.92
2023-02-19T14:33:10.926Z,1.70
2023-02-19T14:35:45.060Z,2.00
2023-02-19T14:40:49.294Z,1.90
2023-02-19T14:43:21.735Z,2.17
2023-02-19T14:46:13.972Z,2.58
2023-02-19T14:48:48.737Z,1.90
2023-02-19T14:51:25.170Z,2.70
2023-02-19T14:53:54.054Z,1.92
2023-02-19T14:56:27.679Z,2.35
2023-02-19T14:59:22.158Z,2.15
2023-02-19T15:04:29.852Z,1.90
2023-02-19T15:07:03.416Z,2.50
2023-02-19T15:09:36.541Z,1.95
2023-02-19T15:12:03.965Z,1.80
2023-02-19T15:14:32.981Z,2.05
2023-02-19T15:17:15.541Z,2.35
2023-02-19T15:19:43.921Z,3.05
2023-02-19T15:22:20.387Z,1.92
2023-02-19T15:24:48.698Z,2.33
2023-02-19T15:27:24.720Z,2.35
2023-02-19T15:29:53.807Z,2.42
2023-02-19T15:32:26.662Z,2.30
2023-02-19T15:34:55.445Z,2.03
2023-02-19T15:37:23.819Z,1.95
2023-02-19T15:39:52.394Z,1.90
2023-02-19T15:42:24.235Z,2.60
2023-02-19T15:45:21.303Z,1.85
2023-02-19T15:47:59.834Z,1.95
2023-02-19T15:50:38.863Z,2.30
2023-02-19T15:53:18.366Z,1.60
2023-02-19T15:56:06.173Z,2.50
2023-02-19T15:58:52.511Z,2.20
2023-02-19T16:01:25.111Z,1.77
2023-02-19T16:03:58.476Z,2.00
2023-02-19T16:06:26.862Z,2.00
2023-02-19T16:09:04.550Z,2.42
2023-02-19T16:11:52.361Z,4.97
2023-02-19T16:14:39.329Z,3.45
2023-02-19T16:17:11.843Z,2.50
2023-02-19T16:20:01.336Z,3.13
2023-02-19T16:22:39.982Z,1.95
2023-02-19T16:25:21.894Z,1.95
2023-02-19T16:27:48.773Z,2.00
2023-02-19T16:30:27.112Z,1.95
2023-02-19T16:33:39.089Z,1.80
2023-02-19T16:36:45.966Z,1.95
2023-02-19T16:39:18.038Z,2.08
2023-02-19T16:41:47.844Z,2.33
2023-02-19T16:44:35.600Z,2.20
2023-02-19T16:47:22.605Z,2.03
2023-02-19T16:49:49.377Z,2.05
2023-02-19T16:52:18.516Z,2.42
2023-02-19T16:54:45.336Z,2.53
2023-02-19T16:57:11.986Z,2.20
2023-02-19T16:59:38.716Z,2.03
2023-02-19T17:02:09.089Z,2.92
2023-02-19T17:04:38.330Z,2.83
2023-02-19T17:07:07.559Z,2.42
2023-02-19T17:09:34.297Z,3.05
2023-02-19T17:12:03.112Z,3.38
2023-02-19T17:14:29.846Z,3.53
2023-02-19T17:16:56.686Z,3.10
2023-02-19T17:19:23.511Z,2.83
2023-02-19T17:21:50.234Z,3.72
2023-02-19T17:24:19.571Z,2.95
2023-02-19T17:26:46.253Z,3.20
2023-02-19T17:29:18.373Z,3.03
2023-02-19T17:31:47.832Z,3.40
2023-02-19T17:34:14.613Z,2.78
2023-02-19T17:36:43.164Z,2.40
2023-02-19T17:39:16.268Z,2.28
2023-02-19T17:41:45.303Z,2.33
2023-02-19T17:44:12.007Z,2.58
2023-02-19T17:46:39.329Z,3.03
2023-02-19T17:49:07.406Z,2.70
2023-02-19T17:51:37.337Z,2.80
2023-02-19T17:54:04.724Z,2.60
2023-02-19T17:56:31.860Z,2.60
2023-02-19T17:58:59.527Z,2.90
2023-02-19T18:01:28.527Z,2.40
2023-02-19T18:03:57.471Z,2.65
2023-02-19T18:06:24.151Z,3.67
2023-02-19T18:08:52.885Z,3.05
2023-02-19T18:11:21.966Z,2.95
2023-02-19T18:13:52.438Z,2.47
2023-02-19T18:16:19.882Z,2.53
2023-02-19T18:18:46.823Z,3.20
2023-02-19T18:21:14.702Z,3.10
2023-02-19T18:23:45.992Z,2.75
2023-02-19T18:26:13.819Z,2.78
2023-02-19T18:28:41.667Z,2.67
2023-02-19T18:31:13.847Z,2.75
2023-02-19T18:33:40.640Z,3.45
2023-02-19T18:36:11.658Z,2.60
2023-02-19T18:38:38.769Z,2.42
2023-02-19T18:41:05.739Z,3.08
2023-02-19T18:43:34.900Z,2.50
2023-02-19T18:46:07.947Z,2.60
2023-02-19T18:48:34.737Z,3.45
2023-02-19T18:51:03.914Z,3.35
2023-02-19T18:53:31.483Z,2.72
2023-02-19T18:56:00.439Z,2.30
2023-02-19T18:58:28.425Z,2.85
2023-02-19T19:00:55.429Z,2.42
2023-02-19T19:03:22.394Z,2.83
2023-02-19T19:05:49.039Z,2.50
2023-02-19T19:08:15.895Z,2.55
2023-02-19T19:10:42.641Z,2.78
2023-02-19T19:13:14.554Z,2.72
2023-02-19T19:15:41.465Z,2.85
2023-02-19T19:18:09.011Z,2.72
2023-02-19T19:20:36.028Z,2.85
2023-02-19T19:23:03.991Z,2.90
2023-02-19T19:25:33.170Z,2.50
2023-02-19T19:28:02.300Z,2.83
2023-02-19T19:30:29.209Z,2.00
2023-02-19T19:32:59.496Z,3.25
2023-02-19T19:35:28.527Z,2.72
2023-02-19T19:37:55.719Z,2.95
2023-02-19T19:40:22.458Z,2.63
2023-02-19T19:42:52.231Z,2.33
2023-02-19T19:45:19.396Z,2.45
2023-02-19T19:47:48.913Z,3.05
2023-02-19T19:50:19.892Z,2.60
2023-02-19T19:52:46.776Z,2.50
2023-02-19T19:55:17.176Z,2.35
2023-02-19T19:57:44.136Z,2.75
2023-02-19T20:00:18.557Z,2.65
2023-02-19T20:02:46.370Z,2.58
2023-02-19T20:05:15.453Z,2.75
2023-02-19T20:07:42.338Z,2.40
2023-02-19T20:10:11.647Z,2.60
2023-02-19T20:12:41.989Z,2.50
2023-02-19T20:15:10.422Z,2.65
2023-02-19T20:17:38.757Z,2.20
2023-02-19T20:20:06.639Z,2.38
2023-02-19T20:22:33.495Z,2.28
2023-02-19T20:25:00.234Z,2.90
2023-02-19T20:27:26.985Z,2.38
2023-02-19T20:29:53.653Z,2.90
2023-02-19T20:32:22.666Z,2.60
2023-02-19T20:34:49.472Z,2.30
2023-02-19T20:37:16.274Z,2.55
2023-02-19T20:39:45.276Z,3.10
2023-02-19T20:42:16.594Z,2.20
2023-02-19T20:44:46.340Z,2.47
2023-02-19T20:47:13.126Z,2.53
2023-02-19T20:49:47.826Z,2.28
2023-02-19T20:52:16.675Z,2.53
2023-02-19T20:54:45.666Z,2.92
2023-02-19T20:57:14.104Z,3.35
2023-02-19T20:59:44.147Z,3.92
2023-02-19T21:02:28.919Z,3.53
2023-02-19T21:04:59.131Z,4.35
2023-02-19T21:07:26.332Z,3.05
2023-02-19T21:09:55.645Z,3.50
2023-02-19T21:12:22.887Z,3.47
2023-02-19T21:14:49.688Z,2.80
2023-02-19T21:17:16.465Z,2.97
2023-02-19T21:19:45.303Z,3.10
2023-02-19T21:22:12.216Z,2.85
2023-02-19T21:24:38.934Z,2.40
2023-02-19T21:27:05.681Z,2.53
2023-02-19T21:29:32.339Z,2.85
2023-02-19T21:32:04.638Z,2.63
2023-02-19T21:34:31.325Z,2.30
2023-02-19T21:37:00.585Z,2.90
2023-02-19T21:39:31.299Z,2.58
2023-02-19T21:42:00.424Z,2.30
2023-02-19T21:44:29.211Z,2.63
2023-02-19T21:46:58.414Z,2.13
2023-02-19T21:49:25.211Z,2.58
2023-02-19T21:51:52.403Z,2.58
2023-02-19T21:54:24.453Z,2.53
2023-02-19T21:56:52.595Z,2.30
2023-02-19T21:59:21.252Z,2.33
2023-02-19T22:01:48.936Z,2.42
2023-02-19T22:04:20.348Z,2.30
2023-02-19T22:06:47.394Z,2.10
2023-02-19T22:09:14.770Z,2.88
2023-02-19T22:11:41.545Z,3.10
2023-02-19T22:14:08.494Z,2.83
2023-02-19T22:16:37.516Z,2.83
2023-02-19T22:19:04.730Z,2.80
2023-02-19T22:21:34.817Z,2.60
2023-02-19T22:24:02.825Z,3.08
2023-02-19T22:26:34.829Z,3.00
2023-02-19T22:29:07.353Z,3.00
2023-02-19T22:31:35.193Z,2.63
2023-02-19T22:34:05.282Z,2.83
2023-02-19T22:36:33.909Z,2.40
2023-02-19T22:39:01.285Z,2.35
2023-02-19T22:41:28.243Z,2.25
2023-02-19T22:43:56.313Z,2.35
2023-02-19T22:46:27.257Z,2.40
2023-02-19T22:48:54.294Z,2.70
2023-02-19T22:51:23.210Z,3.15
2023-02-19T22:53:52.396Z,3.20
2023-02-19T22:56:21.110Z,3.00
2023-02-19T22:58:47.804Z,2.50
2023-02-19T23:01:15.322Z,3.00
2023-02-19T23:03:53.289Z,3.55
2023-02-19T23:06:29.200Z,3.13
2023-02-19T23:08:58.297Z,3.20
2023-02-19T23:11:34.855Z,3.35
2023-02-19T23:14:04.669Z,2.85
2023-02-19T23:16:35.659Z,3.47
2023-02-19T23:19:06.944Z,2.72
2023-02-19T23:21:34.442Z,3.17
2023-02-19T23:24:04.706Z,2.38
2023-02-19T23:26:31.747Z,3.60
2023-02-19T23:29:00.815Z,3.38
2023-02-19T23:31:27.812Z,3.13
2023-02-19T23:33:57.358Z,3.15
2023-02-19T23:36:24.172Z,3.17
2023-02-19T23:38:50.883Z,3.05
2023-02-19T23:41:18.568Z,3.00
2023-02-19T23:43:45.413Z,2.60
2023-02-19T23:46:17.646Z,2.92
2023-02-19T23:48:45.100Z,2.92
2023-02-19T23:51:14.501Z,3.13
2023-02-19T23:53:41.268Z,3.25
2023-02-19T23:56:08.125Z,3.03
2023-02-19T23:58:34.833Z,2.90
